createdAt,value
2018-05-23T00:01:42.405Z,95587.24
2018-05-23T00:04:08.396Z,95588.63
2018-05-23T00:06:34.388Z,95586.43
2018-05-23T00:09:00.374Z,95595.53
2018-05-23T00:11:26.362Z,95586.02
2018-05-23T00:13:52.347Z,95582.48
2018-05-23T00:16:18.336Z,95581.88
2018-05-23T00:18:44.315Z,95573.19
2018-05-23T00:21:10.305Z,95584.84
2018-05-23T00:23:36.285Z,95592.72
2018-05-23T00:26:02.258Z,95596.45
2018-05-23T00:28:28.245Z,95588.74
2018-05-23T00:30:54.222Z,95591.70
2018-05-23T00:33:20.206Z,95593.86
2018-05-23T00:35:46.187Z,95594.86
2018-05-23T00:38:12.172Z,95595.03
2018-05-23T00:40:38.154Z,95589.09
2018-05-23T00:43:04.135Z,95592.05
2018-05-23T00:45:30.123Z,95590.67
2018-05-23T00:47:56.099Z,95594.41
2018-05-23T00:50:22.185Z,95588.89
2018-05-23T00:52:48.076Z,95590.27
2018-05-23T00:55:14.061Z,95585.31
2018-05-23T00:57:40.074Z,95585.89
2018-05-23T01:00:06.083Z,95588.65
2018-05-23T01:02:32.068Z,95594.36
2018-05-23T01:04:58.054Z,95594.17
2018-05-23T01:07:24.043Z,95592.39
2018-05-23T01:09:50.029Z,95594.94
2018-05-23T01:12:16.007Z,95597.70
2018-05-23T01:14:41.992Z,95589.01
2018-05-23T01:17:07.966Z,95583.48
2018-05-23T01:19:33.960Z,95582.27
2018-05-23T01:21:59.950Z,95578.13
2018-05-23T01:24:25.932Z,95578.33
2018-05-23T01:26:51.912Z,95574.99
2018-05-23T01:29:17.897Z,95575.16
2018-05-23T01:31:43.888Z,95575.56
2018-05-23T01:34:09.867Z,95577.91
2018-05-23T01:36:35.862Z,95577.52
2018-05-23T01:39:01.859Z,95573.56
2018-05-23T01:41:27.842Z,95578.89
2018-05-23T01:43:53.822Z,95581.84
2018-05-23T01:46:19.809Z,95577.70
2018-05-23T01:48:45.808Z,95578.69
2018-05-23T01:51:11.798Z,95580.63
2018-05-23T01:53:37.785Z,95580.63
2018-05-23T01:56:03.761Z,95581.20
2018-05-23T01:58:29.750Z,95578.84
2018-05-23T02:00:55.736Z,95585.34
2018-05-23T02:03:21.722Z,95584.37
2018-05-23T02:05:47.735Z,95577.25
2018-05-23T02:08:13.714Z,95579.04
2018-05-23T02:10:39.700Z,95580.99
2018-05-23T02:13:05.687Z,95578.63
2018-05-23T02:15:31.666Z,95578.23
2018-05-23T02:17:57.691Z,95574.25
2018-05-23T02:20:23.675Z,95581.16
2018-05-23T02:22:49.650Z,95579.00
2018-05-23T02:25:15.644Z,95577.61
2018-05-23T02:27:41.622Z,95579.56
2018-05-23T02:30:07.607Z,95582.73
2018-05-23T02:32:33.717Z,95575.59
2018-05-23T02:34:59.697Z,95575.42
2018-05-23T02:37:25.695Z,95579.56
2018-05-23T02:39:51.691Z,95576.39
2018-05-23T02:42:17.685Z,95577.38
2018-05-23T02:44:43.660Z,95573.42
2018-05-23T02:47:09.755Z,95574.81
2018-05-23T02:49:35.686Z,95579.33
2018-05-23T02:52:01.660Z,95577.94
2018-05-23T02:54:27.680Z,95576.56
2018-05-23T02:56:53.661Z,95572.61
2018-05-23T02:59:19.643Z,95570.83
2018-05-23T03:01:45.624Z,95565.31
2018-05-23T03:04:11.604Z,95564.91
2018-05-23T03:06:37.588Z,95564.09
2018-05-23T03:09:03.577Z,95570.42
2018-05-23T03:11:29.579Z,95564.91
2018-05-23T03:13:55.572Z,95569.05
2018-05-23T03:16:21.562Z,95573.37
2018-05-23T03:18:47.553Z,95584.42
2018-05-23T03:21:13.538Z,95577.52
2018-05-23T03:23:39.526Z,95584.02
2018-05-23T03:26:05.513Z,95584.99
2018-05-23T03:28:31.492Z,95579.47
2018-05-23T03:30:57.480Z,95581.83
2018-05-23T03:33:23.465Z,95587.34
2018-05-23T03:35:49.445Z,95586.94
2018-05-23T03:38:15.435Z,95594.81
2018-05-23T03:40:41.410Z,95593.03
2018-05-23T03:43:07.408Z,95596.80
2018-05-23T03:45:33.396Z,95600.53
2018-05-23T03:47:59.372Z,95603.30
2018-05-23T03:50:25.355Z,95607.44
2018-05-23T03:52:51.341Z,95610.98
2018-05-23T03:55:17.326Z,95608.41
2018-05-23T03:57:43.309Z,95610.36
2018-05-23T04:00:09.298Z,95612.55
2018-05-23T04:02:35.282Z,95614.91
2018-05-23T04:05:01.277Z,95621.23
2018-05-23T04:07:27.283Z,95616.86
2018-05-23T04:09:53.302Z,95621.64
2018-05-23T04:12:19.285Z,95625.59
2018-05-23T04:14:45.297Z,95625.43
2018-05-23T04:17:11.279Z,95624.83
2018-05-23T04:19:37.253Z,95624.26
2018-05-23T04:22:03.239Z,95626.25
2018-05-23T04:24:29.249Z,95619.14
2018-05-23T04:26:55.224Z,95628.69
2018-05-23T04:29:21.211Z,95622.97
2018-05-23T04:31:47.238Z,95625.73
2018-05-23T04:34:13.218Z,95621.03
2018-05-23T04:36:39.205Z,95619.41
2018-05-23T04:39:05.202Z,95615.45
2018-05-23T04:41:31.191Z,95614.44
2018-05-23T04:43:57.177Z,95615.57
2018-05-23T04:46:23.160Z,95617.92
2018-05-23T04:48:49.249Z,95614.59
2018-05-23T04:51:15.140Z,95612.19
2018-05-23T04:53:41.131Z,95613.17
2018-05-23T04:56:07.113Z,95618.69
2018-05-23T04:58:33.110Z,95617.87
2018-05-23T05:00:59.092Z,95620.27
2018-05-23T05:03:25.099Z,95617.50
2018-05-23T05:05:51.073Z,95618.07
2018-05-23T05:08:17.089Z,95622.62
2018-05-23T05:10:43.064Z,95619.86
2018-05-23T05:13:09.044Z,95624.97
2018-05-23T05:15:35.070Z,95624.97
2018-05-23T05:18:01.045Z,95623.59
2018-05-23T05:20:27.069Z,95626.92
2018-05-23T05:22:53.068Z,95627.95
2018-05-23T05:25:19.083Z,95622.42
2018-05-23T05:27:45.073Z,95626.36
2018-05-23T05:30:11.069Z,95629.33
2018-05-23T05:32:37.047Z,95631.11
2018-05-23T05:35:03.050Z,95633.16
2018-05-23T05:37:29.041Z,95630.23
2018-05-23T05:39:55.032Z,95631.26
2018-05-23T05:42:21.025Z,95632.07
2018-05-23T05:44:47.030Z,95636.83
2018-05-23T05:47:13.028Z,95632.92
2018-05-23T05:49:39.044Z,95636.78
2018-05-23T05:52:05.089Z,95634.12
2018-05-23T05:54:31.072Z,95638.06
2018-05-23T05:56:57.211Z,95637.30
2018-05-23T05:59:23.200Z,95643.98
2018-05-23T06:01:49.202Z,95648.70
2018-05-23T06:04:15.184Z,95648.70
2018-05-23T06:06:41.164Z,95645.16
2018-05-23T06:09:07.166Z,95646.54
2018-05-23T06:11:33.163Z,95648.89
2018-05-23T06:13:59.150Z,95655.25
2018-05-23T06:16:25.192Z,95648.23
2018-05-23T06:18:51.173Z,95656.91
2018-05-23T06:21:17.176Z,95650.88
2018-05-23T06:23:43.166Z,95650.68
2018-05-23T06:26:09.171Z,95650.52
2018-05-23T06:28:35.180Z,95646.99
2018-05-23T06:31:01.161Z,95651.38
2018-05-23T06:33:27.157Z,95651.38
2018-05-23T06:35:53.147Z,95651.75
2018-05-23T06:38:19.133Z,95647.28
2018-05-23T06:40:45.132Z,95645.91
2018-05-23T06:43:11.168Z,95646.33
2018-05-23T06:45:37.156Z,95643.19
2018-05-23T06:48:03.143Z,95637.88
2018-05-23T06:50:29.147Z,95640.80
2018-05-23T06:52:55.134Z,95635.88
2018-05-23T06:55:21.128Z,95631.19
2018-05-23T06:57:47.117Z,95634.75
2018-05-23T07:00:13.114Z,95630.86
2018-05-23T07:02:39.088Z,95633.02
2018-05-23T07:05:05.143Z,95633.62
2018-05-23T07:07:31.088Z,95630.30
2018-05-23T07:09:57.073Z,95629.33
2018-05-23T07:12:23.059Z,95625.75
2018-05-23T07:14:49.056Z,95626.76
2018-05-23T07:17:15.099Z,95624.83
2018-05-23T07:19:41.089Z,95620.28
2018-05-23T07:22:07.091Z,95625.06
2018-05-23T07:24:33.102Z,95620.92
2018-05-23T07:26:59.112Z,95622.71
2018-05-23T07:29:25.101Z,95621.95
2018-05-23T07:31:51.084Z,95617.40
2018-05-23T07:34:17.069Z,95615.04
2018-05-23T07:36:43.047Z,95611.88
2018-05-23T07:39:09.035Z,95608.50
2018-05-23T07:41:35.011Z,95607.07
2018-05-23T07:44:01.028Z,95608.86
2018-05-23T07:46:27.015Z,95603.37
2018-05-23T07:48:53.005Z,95601.23
2018-05-23T07:51:18.989Z,95601.59
2018-05-23T07:53:44.963Z,95600.90
2018-05-23T07:56:10.954Z,95598.14
2018-05-23T07:58:36.948Z,95601.09
2018-05-23T08:01:02.935Z,95602.64
2018-05-23T08:03:29.029Z,95600.08
2018-05-23T08:05:55.042Z,95596.91
2018-05-23T08:08:21.009Z,95604.63
2018-05-23T08:10:46.994Z,95599.27
2018-05-23T08:13:12.981Z,95595.73
2018-05-23T08:15:38.999Z,95596.66
2018-05-23T08:18:04.954Z,95597.02
2018-05-23T08:20:30.975Z,95597.39
2018-05-23T08:22:56.961Z,95593.94
2018-05-23T08:25:22.965Z,95591.80
2018-05-23T08:27:48.951Z,95584.42
2018-05-23T08:30:14.922Z,95585.02
2018-05-23T08:32:40.909Z,95588.05
2018-05-23T08:35:06.892Z,95585.00
2018-05-23T08:37:32.878Z,95582.44
2018-05-23T08:39:58.860Z,95581.98
2018-05-23T08:42:24.967Z,95583.73
2018-05-23T08:44:50.979Z,95584.34
2018-05-23T08:47:16.984Z,95579.99
2018-05-23T08:49:43.159Z,95581.78
2018-05-23T08:52:09.144Z,95585.11
2018-05-23T08:54:35.180Z,95579.99
2018-05-23T08:57:01.158Z,95582.75
2018-05-23T08:59:27.149Z,95575.45
2018-05-23T09:01:53.272Z,95575.25
2018-05-23T09:04:19.342Z,95571.30
2018-05-23T09:06:45.341Z,95576.83
2018-05-23T09:09:11.361Z,95566.92
2018-05-23T09:11:37.340Z,95564.16
2018-05-23T09:14:03.325Z,95564.16
2018-05-23T09:16:29.311Z,95556.47
2018-05-23T09:18:55.302Z,95564.92
2018-05-23T09:21:21.792Z,95558.99
2018-05-23T09:23:47.775Z,95556.42
2018-05-23T09:26:13.771Z,95558.99
2018-05-23T09:28:39.760Z,95551.69
2018-05-23T09:31:05.883Z,95550.70
2018-05-23T09:33:31.864Z,95549.89
2018-05-23T09:35:57.873Z,95544.57
2018-05-23T09:38:23.866Z,95540.83
2018-05-23T09:40:50.035Z,95542.02
2018-05-23T09:43:16.018Z,95536.33
2018-05-23T09:45:42.006Z,95539.30
2018-05-23T09:48:08.033Z,95527.69
2018-05-23T09:50:34.058Z,95527.11
2018-05-23T09:53:00.061Z,95524.52
2018-05-23T09:55:26.160Z,95522.16
2018-05-23T09:57:52.163Z,95524.11
2018-05-23T10:00:18.155Z,95517.00
2018-05-23T10:02:44.141Z,95517.20
2018-05-23T10:05:10.128Z,95519.19
2018-05-23T10:07:36.140Z,95514.64
2018-05-23T10:10:02.136Z,95521.34
2018-05-23T10:12:28.119Z,95511.48
2018-05-23T10:14:54.117Z,95509.69
2018-05-23T10:17:20.104Z,95500.43
2018-05-23T10:19:46.121Z,95502.22
2018-05-23T10:22:12.104Z,95497.67
2018-05-23T10:24:38.096Z,95491.33
2018-05-23T10:27:04.080Z,95494.33
2018-05-23T10:29:30.060Z,95487.59
2018-05-23T10:31:56.047Z,95482.48
2018-05-23T10:34:22.026Z,95485.64
2018-05-23T10:36:48.037Z,95481.09
2018-05-23T10:39:14.076Z,95483.86
2018-05-23T10:41:40.068Z,95475.17
2018-05-23T10:44:06.057Z,95467.86
2018-05-23T10:46:32.037Z,95465.09
2018-05-23T10:48:58.074Z,95454.86
2018-05-23T10:51:24.060Z,95458.43
2018-05-23T10:53:50.048Z,95452.50
2018-05-23T10:56:16.030Z,95444.83
2018-05-23T10:58:42.016Z,95442.64
2018-05-23T11:01:08.008Z,95440.85
2018-05-23T11:03:33.997Z,95440.28
2018-05-23T11:06:00.075Z,95434.76
2018-05-23T11:08:25.967Z,95437.16
2018-05-23T11:10:51.964Z,95436.99
2018-05-23T11:13:17.951Z,95438.78
2018-05-23T11:15:43.954Z,95431.67
2018-05-23T11:18:09.941Z,95428.34
2018-05-23T11:20:35.941Z,95416.68
2018-05-23T11:23:01.918Z,95418.47
2018-05-23T11:25:27.906Z,95419.08
2018-05-23T11:27:53.895Z,95409.41
2018-05-23T11:30:19.879Z,95409.25
2018-05-23T11:32:46.077Z,95411.20
2018-05-23T11:35:12.071Z,95407.42
2018-05-23T11:37:38.073Z,95394.05
2018-05-23T11:40:04.059Z,95391.30
2018-05-23T11:42:30.079Z,95387.92
2018-05-23T11:44:56.063Z,95388.94
2018-05-23T11:47:22.052Z,95384.42
2018-05-23T11:49:48.060Z,95377.89
2018-05-23T11:52:14.175Z,95382.84
2018-05-23T11:54:40.165Z,95380.28
2018-05-23T11:57:06.119Z,95378.09
2018-05-23T11:59:32.105Z,95366.47
2018-05-23T12:01:58.209Z,95364.69
2018-05-23T12:04:24.123Z,95366.47
2018-05-23T12:06:50.107Z,95363.71
2018-05-23T12:09:16.090Z,95354.05
2018-05-23T12:11:42.103Z,95355.23
2018-05-23T12:14:08.084Z,95353.64
2018-05-23T12:16:34.079Z,95346.53
2018-05-23T12:19:00.077Z,95350.07
2018-05-23T12:21:26.112Z,95340.97
2018-05-23T12:23:52.091Z,95338.81
2018-05-23T12:26:18.072Z,95339.59
2018-05-23T12:28:44.054Z,95335.01
2018-05-23T12:31:10.035Z,95324.77
2018-05-23T12:33:36.070Z,95318.64
2018-05-23T12:36:02.066Z,95325.71
2018-05-23T12:38:28.047Z,95324.73
2018-05-23T12:40:54.197Z,95313.69
2018-05-23T12:43:20.078Z,95315.27
2018-05-23T12:45:46.069Z,95313.65
2018-05-23T12:48:12.057Z,95314.86
2018-05-23T12:50:38.050Z,95314.83
2018-05-23T12:53:04.029Z,95316.58
2018-05-23T12:55:30.012Z,95312.84
2018-05-23T12:57:56.013Z,95305.94
2018-05-23T13:00:21.996Z,95310.08
2018-05-23T13:02:48.052Z,95312.06
2018-05-23T13:05:14.188Z,95308.30
2018-05-23T13:07:40.191Z,95299.40
2018-05-23T13:10:06.172Z,95302.97
2018-05-23T13:12:32.266Z,95313.00
2018-05-23T13:14:58.158Z,95308.45
2018-05-23T13:17:24.156Z,95308.63
2018-05-23T13:19:50.143Z,95293.44
2018-05-23T13:22:16.135Z,95297.95
2018-05-23T13:24:42.125Z,95300.30
2018-05-23T13:27:08.109Z,95301.88
2018-05-23T13:29:34.087Z,95301.08
2018-05-23T13:32:00.103Z,95298.88
2018-05-23T13:34:26.110Z,95302.25
2018-05-23T13:36:52.102Z,95299.08
2018-05-23T13:39:18.090Z,95296.28
2018-05-23T13:41:44.076Z,95297.47
2018-05-23T13:44:10.063Z,95292.92
2018-05-23T13:46:36.039Z,95297.06
2018-05-23T13:49:02.084Z,95290.16
2018-05-23T13:51:28.036Z,95294.50
2018-05-23T13:53:54.020Z,95292.31
2018-05-23T13:56:20.481Z,95295.88
2018-05-23T13:58:46.431Z,95297.66
2018-05-23T14:01:12.667Z,95302.41
2018-05-23T14:03:38.672Z,95298.11
2018-05-23T14:06:04.669Z,95297.09
2018-05-23T14:08:30.772Z,95299.28
2018-05-23T14:10:56.884Z,95303.06
2018-05-23T14:13:22.867Z,95303.88
2018-05-23T14:15:48.854Z,95307.84
2018-05-23T14:18:14.832Z,95311.18
2018-05-23T14:20:40.812Z,95310.77
2018-05-23T14:23:06.810Z,95309.77
2018-05-23T14:25:32.787Z,95308.78
2018-05-23T14:27:58.774Z,95306.42
2018-05-23T14:30:24.805Z,95302.45
2018-05-23T14:32:50.783Z,95292.95
2018-05-23T14:35:16.772Z,95285.68
2018-05-23T14:37:42.778Z,95289.63
2018-05-23T14:40:08.803Z,95297.73
2018-05-23T14:42:34.825Z,95299.69
2018-05-23T14:45:00.820Z,95309.36
2018-05-23T14:47:26.844Z,95311.14
2018-05-23T14:49:52.831Z,95321.61
2018-05-23T14:52:19.892Z,95314.31
2018-05-23T14:54:45.895Z,95321.78
2018-05-23T14:57:11.880Z,95320.40
2018-05-23T14:59:37.905Z,95330.47
2018-05-23T15:02:03.853Z,95323.16
2018-05-23T15:04:29.846Z,95324.55
2018-05-23T15:06:55.834Z,95330.47
2018-05-23T15:09:21.847Z,95342.86
2018-05-23T15:11:47.831Z,95346.96
2018-05-23T15:14:14.011Z,95345.58
2018-05-23T15:16:39.978Z,95341.80
2018-05-23T15:19:05.989Z,95347.33
2018-05-23T15:21:31.942Z,95349.28
2018-05-23T15:23:57.959Z,95350.45
2018-05-23T15:26:23.947Z,95346.69
2018-05-23T15:28:49.930Z,95342.34
2018-05-23T15:31:16.066Z,95340.95
2018-05-23T15:33:41.925Z,95334.22
2018-05-23T15:36:07.930Z,95334.22
2018-05-23T15:38:33.912Z,95337.80
2018-05-23T15:40:59.908Z,95334.02
2018-05-23T15:43:25.892Z,95337.18
2018-05-23T15:45:51.957Z,95335.97
2018-05-23T15:48:17.966Z,95334.18
2018-05-23T15:50:43.989Z,95339.70
2018-05-23T15:53:09.986Z,95334.55
2018-05-23T15:55:35.980Z,95340.07
2018-05-23T15:58:01.972Z,95342.83
2018-05-23T16:00:27.954Z,95340.27
2018-05-23T16:02:53.951Z,95332.36
2018-05-23T16:05:19.912Z,95340.27
2018-05-23T16:07:45.893Z,95339.86
2018-05-23T16:10:11.903Z,95344.17
2018-05-23T16:12:37.860Z,95341.00
2018-05-23T16:15:03.843Z,95336.09
2018-05-23T16:17:29.825Z,95334.70
2018-05-23T16:19:55.840Z,95334.88
2018-05-23T16:22:21.855Z,95341.78
2018-05-23T16:24:47.853Z,95337.23
2018-05-23T16:27:13.839Z,95340.97
2018-05-23T16:29:39.866Z,95341.94
2018-05-23T16:32:05.875Z,95337.80
2018-05-23T16:34:31.928Z,95344.33
2018-05-23T16:36:57.874Z,95336.05
2018-05-23T16:39:23.868Z,95338.41
2018-05-23T16:41:49.858Z,95334.43
2018-05-23T16:44:15.844Z,95336.78
2018-05-23T16:46:41.824Z,95338.57
2018-05-23T16:49:07.838Z,95334.43
2018-05-23T16:51:33.811Z,95337.39
2018-05-23T16:53:59.783Z,95336.01
2018-05-23T16:56:25.764Z,95332.84
2018-05-23T16:58:51.773Z,95330.86
2018-05-23T17:01:17.769Z,95326.91
2018-05-23T17:03:43.761Z,95325.94
2018-05-23T17:06:09.754Z,95321.20
2018-05-23T17:08:35.737Z,95322.24
2018-05-23T17:11:01.725Z,95313.96
2018-05-23T17:13:27.715Z,95303.09
2018-05-23T17:15:53.701Z,95305.89
2018-05-23T17:18:19.688Z,95295.25
2018-05-23T17:20:45.664Z,95291.51
2018-05-23T17:23:11.654Z,95284.81
2018-05-23T17:25:37.653Z,95280.91
2018-05-23T17:28:03.663Z,95279.91
2018-05-23T17:30:29.678Z,95267.48
2018-05-23T17:32:55.684Z,95266.95
2018-05-23T17:35:21.665Z,95265.36
2018-05-23T17:37:47.664Z,95256.84
2018-05-23T17:40:13.686Z,95256.27
2018-05-23T17:42:39.635Z,95245.39
2018-05-23T17:45:05.621Z,95238.89
2018-05-23T17:47:31.604Z,95245.63
2018-05-23T17:49:58.731Z,95244.25
2018-05-23T17:52:24.717Z,95240.68
2018-05-23T17:54:50.782Z,95229.06
2018-05-23T17:57:16.779Z,95226.30
2018-05-23T17:59:42.797Z,95227.85
2018-05-23T18:02:08.886Z,95221.36
2018-05-23T18:04:34.901Z,95220.38
2018-05-23T18:07:00.920Z,95216.23
2018-05-23T18:09:26.904Z,95219.16
2018-05-23T18:11:53.269Z,95224.52
2018-05-23T18:14:19.254Z,95223.30
2018-05-23T18:16:45.355Z,95217.82
2018-05-23T18:19:11.247Z,95217.08
2018-05-23T18:21:37.227Z,95222.60
2018-05-23T18:24:03.244Z,95229.91
2018-05-23T18:26:29.200Z,95228.33
2018-05-23T18:28:55.278Z,95231.05
2018-05-23T18:31:21.245Z,95234.79
2018-05-23T18:33:47.234Z,95235.20
2018-05-23T18:36:13.230Z,95232.23
2018-05-23T18:38:39.240Z,95240.52
2018-05-23T18:41:05.217Z,95230.25
2018-05-23T18:43:31.237Z,95234.63
2018-05-23T18:45:57.230Z,95228.13
2018-05-23T18:48:23.214Z,95237.59
2018-05-23T18:50:49.310Z,95241.56
2018-05-23T18:53:15.564Z,95248.30
2018-05-23T18:55:42.060Z,95244.52
2018-05-23T18:58:08.742Z,95253.01
2018-05-23T19:00:35.074Z,95249.67
2018-05-23T19:03:01.953Z,95257.19
2018-05-23T19:05:28.486Z,95255.98
2018-05-23T19:07:54.541Z,95268.23
2018-05-23T19:10:21.010Z,95264.90
2018-05-23T19:12:47.381Z,95272.00
2018-05-23T19:15:13.958Z,95276.14
2018-05-23T19:17:40.168Z,95281.09
2018-05-23T19:20:06.694Z,95286.42
2018-05-23T19:22:32.562Z,95289.59
2018-05-23T19:24:58.607Z,95298.07
2018-05-23T19:27:24.556Z,95296.05
2018-05-23T19:29:50.731Z,95302.95
2018-05-23T19:32:16.708Z,95310.26
2018-05-23T19:34:42.692Z,95311.84
2018-05-23T19:37:08.684Z,95318.91
2018-05-23T19:39:34.673Z,95317.32
2018-05-23T19:42:00.656Z,95319.68
2018-05-23T19:44:26.635Z,95317.08
2018-05-23T19:46:52.644Z,95317.48
2018-05-23T19:49:18.624Z,95313.14
2018-05-23T19:51:44.610Z,95314.69
2018-05-23T19:54:11.541Z,95315.66
2018-05-23T19:56:37.572Z,95328.49
2018-05-23T19:59:03.472Z,95320.38
2018-05-23T20:01:29.462Z,95315.83
2018-05-23T20:03:57.806Z,95320.98
2018-05-23T20:06:23.930Z,95316.03
2018-05-23T20:08:49.908Z,95322.94
2018-05-23T20:11:15.897Z,95317.98
2018-05-23T20:13:42.796Z,95323.10
2018-05-23T20:16:08.741Z,95324.48
2018-05-23T20:18:34.721Z,95327.84
2018-05-23T20:21:00.706Z,95325.86
2018-05-23T20:23:26.719Z,95331.58
2018-05-23T20:25:52.700Z,95332.16
2018-05-23T20:28:18.679Z,95338.08
2018-05-23T20:30:44.659Z,95342.38
2018-05-23T20:33:10.639Z,95337.27
2018-05-23T20:35:36.617Z,95339.22
2018-05-23T20:38:02.605Z,95343.36
2018-05-23T20:40:28.580Z,95339.83
2018-05-23T20:42:54.555Z,95343.36
2018-05-23T20:45:20.537Z,95339.83
2018-05-23T20:47:46.540Z,95338.61
2018-05-23T20:50:12.572Z,95344.94
2018-05-23T20:52:38.522Z,95339.59
2018-05-23T20:55:04.498Z,95340.56
2018-05-23T20:57:30.625Z,95337.80
2018-05-23T20:59:56.582Z,95335.64
2018-05-23T21:02:22.597Z,95339.38
2018-05-23T21:04:48.931Z,95333.45
2018-05-23T21:07:15.009Z,95333.86
2018-05-23T21:09:41.000Z,95333.05
2018-05-23T21:12:07.150Z,95330.86
2018-05-23T21:14:33.143Z,95332.64
2018-05-23T21:16:59.144Z,95334.02
2018-05-23T21:19:25.300Z,95332.64
2018-05-23T21:21:51.174Z,95330.48
2018-05-23T21:24:17.155Z,95337.95
2018-05-23T21:26:43.140Z,95342.09
2018-05-23T21:29:09.119Z,95332.84
2018-05-23T21:31:35.104Z,95332.44
2018-05-23T21:34:01.095Z,95329.27
2018-05-23T21:36:27.083Z,95325.70
2018-05-23T21:38:53.064Z,95332.03
2018-05-23T21:41:19.045Z,95328.87
2018-05-23T21:43:45.032Z,95323.75
2018-05-23T21:46:11.019Z,95316.64
2018-05-23T21:48:37.008Z,95317.42
2018-05-23T21:51:02.995Z,95314.26
2018-05-23T21:53:29.028Z,95310.72
2018-05-23T21:55:55.011Z,95306.58
2018-05-23T21:58:20.996Z,95302.03
2018-05-23T22:00:46.980Z,95304.39
2018-05-23T22:03:12.966Z,95306.17
2018-05-23T22:05:38.934Z,95306.75
2018-05-23T22:08:04.921Z,95305.77
2018-05-23T22:10:30.939Z,95310.31
2018-05-23T22:12:56.913Z,95315.03
2018-05-23T22:15:22.890Z,95317.38
2018-05-23T22:17:48.907Z,95316.98
2018-05-23T22:20:14.881Z,95321.93
2018-05-23T22:22:40.860Z,95316.61
2018-05-23T22:25:06.840Z,95318.56
2018-05-23T22:27:32.817Z,95316.20
2018-05-23T22:29:58.795Z,95317.58
2018-05-23T22:32:24.814Z,95321.31
2018-05-23T22:34:50.753Z,95322.30
2018-05-23T22:37:16.734Z,95326.44
2018-05-23T22:39:42.715Z,95320.34
2018-05-23T22:42:08.696Z,95319.53
2018-05-23T22:44:34.680Z,95317.34
2018-05-23T22:47:00.665Z,95314.78
2018-05-23T22:49:26.655Z,95313.41
2018-05-23T22:51:52.644Z,95313.20
2018-05-23T22:54:18.684Z,95310.64
2018-05-23T22:56:44.669Z,95308.28
2018-05-23T22:59:10.656Z,95305.69
2018-05-23T23:01:36.656Z,95295.46
2018-05-23T23:04:02.696Z,95302.93
2018-05-23T23:06:28.671Z,95306.67
2018-05-23T23:08:54.657Z,95305.13
2018-05-23T23:11:20.637Z,95308.45
2018-05-23T23:13:46.628Z,95309.42
2018-05-23T23:16:12.636Z,95305.69
2018-05-23T23:18:38.615Z,95296.60
2018-05-23T23:21:04.605Z,95295.02
2018-05-23T23:23:30.623Z,95301.14
2018-05-23T23:25:56.606Z,95303.91
2018-05-23T23:28:22.606Z,95307.23
2018-05-23T23:30:48.599Z,95303.50
2018-05-23T23:33:14.574Z,95300.34
2018-05-23T23:35:40.554Z,95295.02
2018-05-23T23:38:06.576Z,95285.77
2018-05-23T23:40:32.529Z,95280.81
2018-05-23T23:42:58.513Z,95278.22
2018-05-23T23:45:24.498Z,95273.50
2018-05-23T23:47:50.493Z,95275.86
2018-05-23T23:50:16.506Z,95269.53
2018-05-23T23:52:42.464Z,95270.34
2018-05-23T23:55:08.446Z,95267.78
2018-05-23T23:57:34.430Z,95264.82
